LIMG METAR and TAF | Updated Today

LIMG METAR

Villanova D'Albenga International Airport

Observation time: 3:36 hr. ago

LIMG 051650Z 07006KT 9999 BKN030 11/05 Q1027

Need help? Read our tutorial on how to read METARs or read the parsed version below.

Villanova D'Albenga International Airport (LIMG) METAR

  • Weather conditions on Sun, 05 Feb 2023 16:50:00 +0000 (3:36 hr. ago):
  • Present conditions: Dry
  • Clouds: Broken sky at 914 meters
  • Visibility: Greater than 10 km
  • Wind: 70 degrees at 6 knots
  • Temperature: 11 celsius
  • Dew point: 5 celsius
  • Pressure: 1027 millibars
  • Remarks: None


Useful to know...

LIMG TAF

Villanova D'Albenga International Airport

TAF LIMG 051100Z 0512/0612 06010KT CAVOK BECMG 0517/0519 VRB05KT BECMG 0520/0522 01010KT
Observation time: 9:26 hr. ago
Need help? Read our tutorial on how to read TAFs or read the parsed version below.

Parsed version of TAF for Villanova D'Albenga International Airport (LIMG)

  • From 05 February at 12:00 UTC, to day 06 of the month at 12:00 UTC
  • Visibility: Greater than 10 km
  • Wind: 60 degrees at 10
  • Expected to arise soon, from 05 February at 17:00 UTC, to day 05 of the month at 19:00 UTC
  • Wind: Variable at 5
  • Expected to arise soon, from 05 February at 20:00 UTC, to day 05 of the month at 22:00 UTC
  • Wind: 10 degrees at 10